createdAt,value
2019-06-10T00:00:59.822Z,936.1
2019-06-10T00:02:02.485Z,936.2
2019-06-10T00:03:02.781Z,936.2
2019-06-10T00:04:05.043Z,936.2
2019-06-10T00:05:10.935Z,936.2
2019-06-10T00:06:11.493Z,936.2
2019-06-10T00:07:11.779Z,936.2
2019-06-10T00:08:11.720Z,936
2019-06-10T00:09:13.321Z,936.1
2019-06-10T00:10:12.566Z,936
2019-06-10T00:11:11.601Z,935.9
2019-06-10T00:12:12.611Z,936
2019-06-10T00:13:13.881Z,936
2019-06-10T00:14:12.796Z,936
2019-06-10T00:15:13.236Z,935.9
2019-06-10T00:16:16.810Z,935.9
2019-06-10T00:17:14.915Z,935
2019-06-10T00:18:47.335Z,935.7
2019-06-10T00:19:17.192Z,935.7
2019-06-10T00:20:18.338Z,935.7
2019-06-10T00:21:21.708Z,935.7
2019-06-10T00:22:21.525Z,935.7
2019-06-10T00:23:22.006Z,935.8
2019-06-10T00:24:26.573Z,935.8
2019-06-10T00:25:26.366Z,935.8
2019-06-10T00:26:26.946Z,935.7
2019-06-10T00:27:25.040Z,935.9
2019-06-10T00:28:26.169Z,935.8
2019-06-10T00:29:27.306Z,935.9
2019-06-10T00:30:28.452Z,935.8
2019-06-10T00:31:31.215Z,935.8
2019-06-10T00:32:31.973Z,935.8
2019-06-10T00:33:31.476Z,935.8
2019-06-10T00:34:34.897Z,935.8
2019-06-10T00:35:33.433Z,935.7
2019-06-10T00:36:36.278Z,935.8
2019-06-10T00:37:36.902Z,935.7
2019-06-10T00:38:37.272Z,935.7
2019-06-10T00:39:37.663Z,935.7
2019-06-10T00:40:41.381Z,935.8
2019-06-10T00:41:42.621Z,935.7
2019-06-10T00:42:41.731Z,935.8
2019-06-10T00:43:41.290Z,935.5
2019-06-10T00:44:42.650Z,935.8
2019-06-10T00:45:46.667Z,935.8
2019-06-10T00:46:46.192Z,935.7
2019-06-10T00:47:46.790Z,935.8
2019-06-10T00:48:46.466Z,934.3
2019-06-10T00:49:46.840Z,935.7
2019-06-10T00:50:48.265Z,935.7
2019-06-10T00:51:50.896Z,935.7
2019-06-10T00:52:51.634Z,935.7
2019-06-10T00:53:52.128Z,935.3
2019-06-10T00:54:53.533Z,935.7
2019-06-10T00:55:57.003Z,935.7
2019-06-10T00:56:57.242Z,935.7
2019-06-10T00:57:57.631Z,935.8
2019-06-10T00:59:00.954Z,935.8
2019-06-10T01:00:01.621Z,935.7
2019-06-10T01:01:02.132Z,935.7
2019-06-10T01:02:03.298Z,935.8
2019-06-10T01:03:02.435Z,935.8
2019-06-10T01:04:03.703Z,935.8
2019-06-10T01:05:07.249Z,935.9
2019-06-10T01:06:13.497Z,935.9
2019-06-10T01:07:06.494Z,935.8
2019-06-10T01:08:13.791Z,935.8
2019-06-10T01:09:08.775Z,935.8
2019-06-10T01:10:08.901Z,935.8
2019-06-10T01:11:27.089Z,935.7
2019-06-10T01:12:12.881Z,935.7
2019-06-10T01:13:12.194Z,935.8
2019-06-10T01:14:15.049Z,935.7
2019-06-10T01:15:14.921Z,935.7
2019-06-10T01:16:15.135Z,935.7
2019-06-10T01:17:21.293Z,935.4
2019-06-10T01:18:42.889Z,935.4
2019-06-10T01:19:21.825Z,935.6
2019-06-10T01:20:21.331Z,935.5
2019-06-10T01:21:21.786Z,935.5
2019-06-10T01:22:21.107Z,935.5
2019-06-10T01:23:21.778Z,935.5
2019-06-10T01:24:22.701Z,935.5
2019-06-10T01:25:23.159Z,935.5
2019-06-10T01:26:23.695Z,935.5
2019-06-10T01:27:26.589Z,935.5
2019-06-10T01:28:25.703Z,935.6
2019-06-10T01:29:27.180Z,934.1
2019-06-10T01:30:32.731Z,935.4
2019-06-10T01:31:31.688Z,935.5
2019-06-10T01:32:31.330Z,935.5
2019-06-10T01:33:32.067Z,935.4
2019-06-10T01:34:33.649Z,935.4
2019-06-10T01:35:35.925Z,935.4
2019-06-10T01:36:36.811Z,935.4
2019-06-10T01:37:36.519Z,935.4
2019-06-10T01:38:36.640Z,935.4
2019-06-10T01:39:37.770Z,935.4
2019-06-10T01:40:38.893Z,935.3
2019-06-10T01:41:40.903Z,935.3
2019-06-10T01:42:41.811Z,935.4
2019-06-10T01:43:42.501Z,935.4
2019-06-10T01:44:43.637Z,935.4
2019-06-10T01:45:47.589Z,935.4
2019-06-10T01:46:46.439Z,935.3
2019-06-10T01:47:47.085Z,935.4
2019-06-10T01:48:53.806Z,935.3
2019-06-10T01:49:47.869Z,935.4
2019-06-10T01:50:51.213Z,935.4
2019-06-10T01:51:51.478Z,935.3
2019-06-10T01:52:52.006Z,935.3
2019-06-10T01:53:52.514Z,935.3
2019-06-10T01:54:53.657Z,935.5
2019-06-10T01:55:54.787Z,935.3
2019-06-10T01:56:55.939Z,935.4
2019-06-10T01:57:57.342Z,935.4
2019-06-10T01:58:58.739Z,935.4
2019-06-10T02:00:00.936Z,935.4
2019-06-10T02:01:01.500Z,935.3
2019-06-10T02:02:02.994Z,935.4
2019-06-10T02:03:11.550Z,935.4
2019-06-10T02:04:04.632Z,935.5
2019-06-10T02:05:08.378Z,935.4
2019-06-10T02:06:07.024Z,935.5
2019-06-10T02:07:09.118Z,935.5
2019-06-10T02:08:08.698Z,935.4
2019-06-10T02:09:12.050Z,935.4
2019-06-10T02:10:12.347Z,935.4
2019-06-10T02:11:14.001Z,935.5
2019-06-10T02:12:15.788Z,935.4
2019-06-10T02:13:20.125Z,935.6
2019-06-10T02:14:24.103Z,935.6
2019-06-10T02:15:22.580Z,935.6
2019-06-10T02:16:17.729Z,935.7
2019-06-10T02:17:23.989Z,935.7
2019-06-10T02:18:22.491Z,935.6
2019-06-10T02:19:23.888Z,935.9
2019-06-10T02:20:28.660Z,935.8
2019-06-10T02:21:24.457Z,936
2019-06-10T02:22:31.647Z,936.2
2019-06-10T02:23:31.040Z,936.3
2019-06-10T02:24:31.301Z,936.6
2019-06-10T02:25:26.488Z,936.7
2019-06-10T02:26:30.842Z,936.7
2019-06-10T02:27:31.116Z,936.9
2019-06-10T02:28:31.608Z,936.9
2019-06-10T02:29:31.316Z,937
2019-06-10T02:30:57.087Z,937.2
2019-06-10T02:31:37.233Z,937.1
2019-06-10T02:32:43.297Z,936.9
2019-06-10T02:33:42.190Z,936.8
2019-06-10T02:36:44.433Z,936.5
2019-06-10T02:39:44.026Z,936.4
2019-06-10T02:42:36.052Z,936.2
2019-06-10T02:43:37.714Z,936.4
2019-06-10T02:44:38.308Z,936.4
2019-06-10T02:45:44.421Z,936.3
2019-06-10T02:46:43.798Z,936.4
2019-06-10T02:47:33.099Z,936.4
2019-06-10T02:48:36.842Z,936.3
2019-06-10T02:49:47.857Z,936.2
2019-06-10T02:50:44.063Z,936
2019-06-10T02:51:43.558Z,936.1
2019-06-10T02:52:44.559Z,936.1
2019-06-10T02:53:43.340Z,936
2019-06-10T02:54:43.800Z,936.1
2019-06-10T02:55:43.157Z,936
2019-06-10T02:56:44.071Z,936
2019-06-10T02:57:39.937Z,936
2019-06-10T02:58:45.523Z,936.1
2019-06-10T02:59:38.571Z,936.1
2019-06-10T03:00:54.701Z,936.1
2019-06-10T03:01:44.369Z,936.1
2019-06-10T03:02:44.910Z,936.1
2019-06-10T03:05:53.601Z,935.9
2019-06-10T03:08:43.587Z,935.7
2019-06-10T03:09:42.712Z,935.5
2019-06-10T03:10:44.219Z,935.5
2019-06-10T03:11:37.022Z,934.2
2019-06-10T03:12:38.496Z,935.4
2019-06-10T03:13:38.580Z,935.3
2019-06-10T03:14:38.694Z,935.3
2019-06-10T03:15:39.832Z,935.4
2019-06-10T03:16:42.279Z,933.9
2019-06-10T03:17:42.984Z,935.4
2019-06-10T03:18:43.613Z,935.4
2019-06-10T03:19:58.303Z,935.3
2019-06-10T03:20:47.926Z,935.4
2019-06-10T03:21:46.027Z,935.2
2019-06-10T03:22:47.146Z,935.2
2019-06-10T03:23:48.566Z,935.4
2019-06-10T03:24:52.270Z,935.3
2019-06-10T03:25:52.690Z,935.3
2019-06-10T03:26:52.309Z,935.2
2019-06-10T03:27:52.690Z,935.1
2019-06-10T03:28:54.114Z,935.2
2019-06-10T03:29:54.368Z,935.1
2019-06-10T03:31:05.963Z,935.1
2019-06-10T03:32:04.950Z,935.1
2019-06-10T03:32:57.367Z,935.2
2019-06-10T03:34:04.419Z,935.1
2019-06-10T03:35:04.965Z,935.3
2019-06-10T03:36:02.952Z,935.2
2019-06-10T03:37:02.432Z,935.2
2019-06-10T03:38:03.078Z,935.2
2019-06-10T03:39:03.527Z,935.2
2019-06-10T03:40:04.313Z,935.2
2019-06-10T03:41:08.700Z,935.2
2019-06-10T03:42:07.654Z,935.1
2019-06-10T03:43:08.040Z,935.1
2019-06-10T03:44:09.454Z,935.1
2019-06-10T03:45:13.816Z,935.1
2019-06-10T03:46:13.527Z,935.2
2019-06-10T03:47:13.126Z,935.2
2019-06-10T03:48:14.524Z,935.3
2019-06-10T03:49:19.130Z,935.2
2019-06-10T03:50:19.184Z,935.3
2019-06-10T03:51:17.362Z,935.4
2019-06-10T03:52:19.264Z,935.3
2019-06-10T03:53:19.750Z,935.5
2019-06-10T03:54:24.363Z,935.4
2019-06-10T03:55:24.946Z,935.4
2019-06-10T03:56:25.084Z,935.3
2019-06-10T03:57:26.792Z,935.2
2019-06-10T03:58:32.659Z,935.2
2019-06-10T03:59:32.970Z,935.1
2019-06-10T04:00:32.813Z,935
2019-06-10T04:01:35.188Z,935.1
2019-06-10T04:02:33.548Z,935
2019-06-10T04:03:34.635Z,935
2019-06-10T04:04:33.625Z,935
2019-06-10T04:05:34.241Z,934.9
2019-06-10T04:06:34.964Z,935
2019-06-10T04:07:42.205Z,935.1
2019-06-10T04:08:34.887Z,935.1
2019-06-10T04:09:38.426Z,935.1
2019-06-10T04:10:37.812Z,935.1
2019-06-10T04:11:43.039Z,935.1
2019-06-10T04:12:39.247Z,935
2019-06-10T04:13:42.840Z,935.1
2019-06-10T04:14:41.937Z,935
2019-06-10T04:15:43.041Z,935.1
2019-06-10T04:16:43.558Z,935.1
2019-06-10T04:17:44.942Z,934.9
2019-06-10T04:18:48.496Z,935
2019-06-10T04:19:47.502Z,934.9
2019-06-10T04:20:48.280Z,934.9
2019-06-10T04:21:48.801Z,934.8
2019-06-10T04:22:52.239Z,934.7
2019-06-10T04:23:52.782Z,934.9
2019-06-10T04:24:52.345Z,934.9
2019-06-10T04:25:53.479Z,935
2019-06-10T04:26:54.629Z,934.9
2019-06-10T04:27:57.822Z,934.9
2019-06-10T04:28:58.439Z,934.7
2019-06-10T04:29:57.871Z,934.7
2019-06-10T04:30:59.021Z,934.6
2019-06-10T04:31:59.393Z,934.5
2019-06-10T04:33:02.274Z,934.4
2019-06-10T04:34:03.121Z,934.4
2019-06-10T04:35:02.659Z,934.4
2019-06-10T04:36:03.793Z,934.4
2019-06-10T04:37:05.179Z,934.3
2019-06-10T04:38:07.895Z,934.4
2019-06-10T04:39:08.664Z,934.4
2019-06-10T04:40:08.423Z,934.4
2019-06-10T04:41:08.899Z,934.3
2019-06-10T04:42:09.301Z,934.1
2019-06-10T04:43:12.392Z,934.2
2019-06-10T04:44:13.107Z,934.1
2019-06-10T04:45:12.384Z,934.1
2019-06-10T04:46:13.791Z,934.2
2019-06-10T04:47:18.247Z,934.3
2019-06-10T04:48:15.557Z,934.3
2019-06-10T04:49:16.683Z,934.3
2019-06-10T04:50:46.397Z,934.3
2019-06-10T04:53:14.473Z,934.4
2019-06-10T04:54:15.232Z,934.5
2019-06-10T04:55:18.783Z,934.5
2019-06-10T04:56:17.798Z,934.5
2019-06-10T04:57:18.796Z,934.5
2019-06-10T04:58:19.449Z,934.4
2019-06-10T04:59:21.317Z,934.6
2019-06-10T05:00:23.059Z,934.6
2019-06-10T05:01:25.461Z,934.5
2019-06-10T05:02:28.877Z,934.6
2019-06-10T05:03:26.477Z,934.6
2019-06-10T05:04:26.453Z,934.6
2019-06-10T05:05:32.613Z,934.6
2019-06-10T05:06:32.738Z,934.7
2019-06-10T05:07:36.758Z,934.7
2019-06-10T05:08:33.851Z,934.7
2019-06-10T05:09:29.442Z,934.7
2019-06-10T05:10:33.474Z,934.6
2019-06-10T05:11:34.139Z,934.6
2019-06-10T05:12:33.285Z,934.4
2019-06-10T05:13:35.239Z,934.4
2019-06-10T05:14:38.476Z,934.5
2019-06-10T05:15:40.261Z,934.3
2019-06-10T05:16:43.048Z,934.3
2019-06-10T05:17:39.714Z,934.3
2019-06-10T05:18:38.783Z,934.1
2019-06-10T05:19:39.228Z,934.2
2019-06-10T05:20:51.849Z,934.2
2019-06-10T05:21:39.570Z,934.3
2019-06-10T05:22:42.347Z,934.5
2019-06-10T05:23:42.922Z,934.8
2019-06-10T05:24:42.886Z,935
2019-06-10T05:25:44.295Z,935.2
2019-06-10T05:26:45.420Z,935.2
2019-06-10T05:27:48.387Z,935.2
2019-06-10T05:28:48.737Z,935.2
2019-06-10T05:29:49.123Z,935.2
2019-06-10T05:30:53.060Z,935.1
2019-06-10T05:31:52.264Z,935
2019-06-10T05:32:52.699Z,935
2019-06-10T05:33:54.085Z,935.1
2019-06-10T05:34:54.633Z,934.9
2019-06-10T05:35:58.249Z,935.1
2019-06-10T05:36:56.358Z,935.1
2019-06-10T05:37:58.113Z,935
2019-06-10T05:38:58.237Z,935.1
2019-06-10T05:39:59.365Z,935.2
2019-06-10T05:41:02.767Z,935.2
2019-06-10T05:42:03.254Z,935.1
2019-06-10T05:43:02.764Z,935.2
2019-06-10T05:44:03.902Z,935.2
2019-06-10T05:45:04.976Z,935.3
2019-06-10T05:46:08.539Z,934
2019-06-10T05:47:09.419Z,935.2
2019-06-10T05:48:07.520Z,935.1
2019-06-10T05:49:08.651Z,935.2
2019-06-10T05:50:09.780Z,935.3
2019-06-10T05:51:12.354Z,935.4
2019-06-10T05:52:12.581Z,935.4
2019-06-10T05:53:13.183Z,935.4
2019-06-10T05:54:14.559Z,935.4
2019-06-10T05:55:17.501Z,935.4
2019-06-10T05:56:18.255Z,935.4
2019-06-10T05:57:17.447Z,935.4
2019-06-10T05:58:18.323Z,935.5
2019-06-10T05:59:18.703Z,935.5
2019-06-10T06:00:22.927Z,935.6
2019-06-10T06:01:22.804Z,935.5
2019-06-10T06:02:22.256Z,935.6
2019-06-10T06:03:22.922Z,935.5
2019-06-10T06:04:24.610Z,935.5
2019-06-10T06:05:24.444Z,935.5
2019-06-10T06:06:25.599Z,934.1
2019-06-10T06:07:27.640Z,935.4
2019-06-10T06:08:27.753Z,935.5
2019-06-10T06:09:29.213Z,935.6
2019-06-10T06:10:33.866Z,935.5
2019-06-10T06:11:34.934Z,935.5
2019-06-10T06:12:34.355Z,935.5
2019-06-10T06:13:36.044Z,935.6
2019-06-10T06:14:36.101Z,935.5
2019-06-10T06:15:35.904Z,935.5
2019-06-10T06:16:36.269Z,935.5
2019-06-10T06:17:42.945Z,935.6
2019-06-10T06:18:42.330Z,935.7
2019-06-10T06:19:39.498Z,935.6
2019-06-10T06:20:40.626Z,935.7
2019-06-10T06:21:53.222Z,935.7
2019-06-10T06:22:43.133Z,935.7
2019-06-10T06:23:43.895Z,935.7
2019-06-10T06:24:44.291Z,935.6
2019-06-10T06:25:53.134Z,935.6
2019-06-10T06:26:48.785Z,935.6
2019-06-10T06:27:47.490Z,935.7
2019-06-10T06:28:48.640Z,935.7
2019-06-10T06:29:48.564Z,935.6
2019-06-10T06:30:48.942Z,935.7
2019-06-10T06:31:52.250Z,935.7
2019-06-10T06:32:53.251Z,935.7
2019-06-10T06:33:52.886Z,935.7
2019-06-10T06:34:53.028Z,935.7
2019-06-10T06:35:53.640Z,934.3
2019-06-10T06:36:55.030Z,935.7
2019-06-10T06:37:59.400Z,935.7
2019-06-10T06:38:58.606Z,935.7
2019-06-10T06:39:58.990Z,935.6
2019-06-10T06:41:02.951Z,935.6
2019-06-10T06:42:02.218Z,935.6
2019-06-10T06:43:02.799Z,935.4
2019-06-10T06:44:04.163Z,935.4
2019-06-10T06:45:05.294Z,935.4
2019-06-10T06:46:08.070Z,935.4
2019-06-10T06:47:08.150Z,935.2
2019-06-10T06:48:08.526Z,935.3
2019-06-10T06:49:09.921Z,935.3
2019-06-10T06:50:12.894Z,935.3
2019-06-10T06:51:14.199Z,935.3
2019-06-10T06:52:12.776Z,935.4
2019-06-10T06:53:45.015Z,935.4
2019-06-10T06:54:14.465Z,935.4
2019-06-10T06:55:18.107Z,935.5
2019-06-10T06:56:16.638Z,935.5
2019-06-10T06:57:17.782Z,935.4
2019-06-10T06:58:18.907Z,935.4
2019-06-10T06:59:22.271Z,935.3
2019-06-10T07:01:10.730Z,935.3
2019-06-10T07:01:25.599Z,935.2
2019-06-10T07:02:22.888Z,935.2
2019-06-10T07:03:24.300Z,935.1
2019-06-10T07:04:25.697Z,935.1
2019-06-10T07:05:28.302Z,935
2019-06-10T07:06:27.688Z,935.1
2019-06-10T07:07:30.055Z,935.1
2019-06-10T07:08:32.821Z,935
2019-06-10T07:09:33.020Z,935.1
2019-06-10T07:10:33.136Z,935.1
2019-06-10T07:11:36.673Z,935
2019-06-10T07:12:36.318Z,935.1
2019-06-10T07:13:36.987Z,935
2019-06-10T07:14:47.090Z,935
2019-06-10T07:15:46.828Z,935
2019-06-10T07:16:46.293Z,935
2019-06-10T07:17:45.448Z,935
2019-06-10T07:18:54.310Z,935.1
2019-06-10T07:19:39.897Z,935
2019-06-10T07:20:45.738Z,934.9
2019-06-10T07:22:19.936Z,934.5
2019-06-10T07:22:46.507Z,935
2019-06-10T07:23:52.786Z,935
2019-06-10T07:24:47.389Z,935
2019-06-10T07:25:53.169Z,934.9
2019-06-10T07:27:02.585Z,934.8
2019-06-10T07:27:52.813Z,934.9
2019-06-10T07:28:53.659Z,935
2019-06-10T07:29:53.043Z,935
2019-06-10T07:30:52.417Z,935.1
2019-06-10T07:31:58.802Z,935.1
2019-06-10T07:32:52.951Z,935
2019-06-10T07:33:53.297Z,934.8
2019-06-10T07:34:54.692Z,934.9
2019-06-10T07:36:03.126Z,934.9
2019-06-10T07:36:57.665Z,935
2019-06-10T07:37:58.061Z,934.5
2019-06-10T07:38:59.566Z,935
2019-06-10T07:40:02.884Z,934.9
2019-06-10T07:41:02.677Z,934.8
2019-06-10T07:42:03.192Z,934.9
2019-06-10T07:43:04.315Z,934.7
2019-06-10T07:44:08.267Z,934.7
2019-06-10T07:45:06.363Z,934.7
2019-06-10T07:46:07.512Z,934.7
2019-06-10T07:47:08.556Z,934.7
2019-06-10T07:48:12.027Z,934.7
2019-06-10T07:49:13.210Z,934.6
2019-06-10T07:50:12.134Z,934.6
2019-06-10T07:51:13.063Z,934.6
2019-06-10T07:52:25.178Z,934.5
2019-06-10T07:53:14.203Z,934.6
2019-06-10T07:54:15.339Z,934.6
2019-06-10T07:55:18.298Z,934.6
2019-06-10T07:56:17.402Z,934.6
2019-06-10T07:57:17.736Z,934.6
2019-06-10T07:58:19.143Z,934.6
2019-06-10T07:59:23.171Z,934.6
2019-06-10T08:00:22.697Z,934.7
2019-06-10T08:01:22.907Z,934.5
2019-06-10T08:02:23.559Z,934.5
2019-06-10T08:03:27.803Z,934.5
2019-06-10T08:04:28.018Z,934.4
2019-06-10T08:05:28.980Z,934.5
2019-06-10T08:06:28.556Z,934.4
2019-06-10T08:07:29.098Z,934.4
2019-06-10T08:08:32.614Z,934.5
2019-06-10T08:09:33.339Z,934.5
2019-06-10T08:10:32.777Z,934.4
2019-06-10T08:11:33.356Z,934.5
2019-06-10T08:12:35.117Z,934.5
2019-06-10T08:13:35.277Z,934.4
2019-06-10T08:14:37.395Z,934.3
2019-06-10T08:15:37.568Z,934.4
2019-06-10T08:16:39.837Z,934.4
2019-06-10T08:17:45.729Z,934.4
2019-06-10T08:19:34.099Z,934.4
2019-06-10T08:21:39.011Z,934.5
2019-06-10T08:24:39.301Z,934.4
2019-06-10T08:25:38.446Z,934.4
2019-06-10T08:26:37.844Z,934.3
2019-06-10T08:27:38.977Z,934.3
2019-06-10T08:28:42.253Z,934.5
2019-06-10T08:29:41.447Z,934.4
2019-06-10T08:30:42.873Z,934.3
2019-06-10T08:31:46.286Z,934.4
2019-06-10T08:32:46.364Z,934.3
2019-06-10T08:33:47.076Z,934.3
2019-06-10T08:34:52.968Z,934.2
2019-06-10T08:37:45.660Z,934.2
2019-06-10T08:38:44.597Z,934.2
2019-06-10T08:39:45.570Z,934.2
2019-06-10T08:40:45.343Z,934.2
2019-06-10T08:41:52.856Z,934.1
2019-06-10T08:42:53.897Z,934.1
2019-06-10T08:43:53.693Z,934.1
2019-06-10T08:44:48.593Z,934.2
2019-06-10T08:45:53.991Z,934.2
2019-06-10T08:46:53.780Z,934.2
2019-06-10T08:47:53.993Z,934.2
2019-06-10T08:48:54.887Z,934.2
2019-06-10T08:49:54.587Z,934.2
2019-06-10T08:50:58.386Z,934
2019-06-10T08:51:58.769Z,934.1
2019-06-10T08:53:23.071Z,934.2
2019-06-10T08:53:58.641Z,934.1
2019-06-10T08:54:59.967Z,932.9
2019-06-10T08:55:59.349Z,934
2019-06-10T08:57:03.343Z,934.1
2019-06-10T08:58:02.726Z,934.2
2019-06-10T08:59:03.206Z,934
2019-06-10T09:00:10.857Z,934
2019-06-10T09:01:07.782Z,934
2019-06-10T09:02:05.885Z,933.9
2019-06-10T09:03:09.613Z,934
2019-06-10T09:04:08.715Z,933.9
2019-06-10T09:05:09.229Z,934.1
2019-06-10T09:06:10.353Z,934
2019-06-10T09:07:12.508Z,934
2019-06-10T09:08:12.973Z,934
2019-06-10T09:09:13.913Z,933.9
2019-06-10T09:10:15.304Z,934.1
2019-06-10T09:11:21.097Z,934
2019-06-10T09:12:45.242Z,934
2019-06-10T09:13:18.409Z,933.9
2019-06-10T09:14:19.578Z,933.9
2019-06-10T09:15:23.421Z,934.1
2019-06-10T09:16:24.865Z,934.2
2019-06-10T09:17:23.240Z,934.1
2019-06-10T09:18:28.549Z,934.1
2019-06-10T09:19:27.525Z,934.1
2019-06-10T09:20:25.665Z,934
2019-06-10T09:21:26.755Z,933.9
2019-06-10T09:22:27.889Z,934.1
2019-06-10T09:23:33.078Z,934.1
2019-06-10T09:24:32.717Z,934
2019-06-10T09:25:33.295Z,932.9
2019-06-10T09:26:33.663Z,934
2019-06-10T09:27:33.177Z,934.1
2019-06-10T09:28:34.579Z,934.1
2019-06-10T09:29:35.484Z,934
2019-06-10T09:30:40.403Z,933.9
2019-06-10T09:31:39.434Z,934.1
2019-06-10T09:32:39.795Z,934
2019-06-10T09:33:39.578Z,934
2019-06-10T09:34:42.935Z,934
2019-06-10T09:35:45.495Z,934.1
2019-06-10T09:36:46.528Z,932.9
2019-06-10T09:37:49.817Z,934
2019-06-10T09:38:47.059Z,934.1
2019-06-10T09:39:59.894Z,933.1
2019-06-10T09:41:01.572Z,934.1
2019-06-10T09:42:07.568Z,934
2019-06-10T09:42:55.939Z,934.1
2019-06-10T09:44:03.183Z,934.2
2019-06-10T09:44:55.873Z,934.1
2019-06-10T09:45:56.854Z,934.1
2019-06-10T09:47:00.033Z,934.2
2019-06-10T09:47:58.764Z,932.9
2019-06-10T09:49:02.100Z,934.2
2019-06-10T09:49:55.727Z,934.2
2019-06-10T09:51:04.452Z,934.2
2019-06-10T09:52:03.291Z,934
2019-06-10T09:53:03.362Z,934.1
2019-06-10T09:54:12.712Z,934.1
2019-06-10T09:55:02.810Z,934
2019-06-10T09:56:03.392Z,934
2019-06-10T09:57:02.368Z,934
2019-06-10T09:58:03.125Z,934.1
2019-06-10T09:59:03.305Z,934
2019-06-10T10:00:04.463Z,934.1
2019-06-10T10:01:04.849Z,934.1
2019-06-10T10:02:12.651Z,934.2
2019-06-10T10:03:08.814Z,934.1
2019-06-10T10:04:08.194Z,934.1
2019-06-10T10:05:09.330Z,934
2019-06-10T10:06:15.249Z,934
2019-06-10T10:07:12.212Z,934
2019-06-10T10:08:12.846Z,934
2019-06-10T10:09:13.233Z,933.9
2019-06-10T10:10:13.613Z,934
2019-06-10T10:11:18.339Z,934
2019-06-10T10:12:17.625Z,933.9
2019-06-10T10:13:18.516Z,933.7
2019-06-10T10:14:23.032Z,933.9
2019-06-10T10:15:39.339Z,933.9
2019-06-10T10:16:19.552Z,933.8
2019-06-10T10:17:22.980Z,933.8
2019-06-10T10:18:23.385Z,933.9
2019-06-10T10:19:23.124Z,933.9
2019-06-10T10:20:23.258Z,933.7
2019-06-10T10:21:24.385Z,933.8
2019-06-10T10:22:25.516Z,933.8
2019-06-10T10:23:26.644Z,933.8
2019-06-10T10:24:28.462Z,933.8
2019-06-10T10:25:28.596Z,933.8
2019-06-10T10:26:29.996Z,932.6
2019-06-10T10:27:32.294Z,933.9
2019-06-10T10:28:33.366Z,933.8
2019-06-10T10:29:33.938Z,933.8
2019-06-10T10:30:34.742Z,933.8
2019-06-10T10:31:37.868Z,933.8
2019-06-10T10:32:38.799Z,933.8
2019-06-10T10:33:38.787Z,933.7
2019-06-10T10:34:38.919Z,933.7
2019-06-10T10:35:40.071Z,933.7
2019-06-10T10:36:44.903Z,933.7
2019-06-10T10:37:42.701Z,933.7
2019-06-10T10:38:44.724Z,933.6
2019-06-10T10:39:45.235Z,933.7
2019-06-10T10:40:48.673Z,933.6
2019-06-10T10:41:48.626Z,933.6
2019-06-10T10:43:25.056Z,933.7
2019-06-10T10:43:58.362Z,933.6
2019-06-10T10:45:02.708Z,933.7
2019-06-10T10:46:01.018Z,933.7
2019-06-10T10:46:55.411Z,933.7
2019-06-10T10:47:56.500Z,933.6
2019-06-10T10:48:56.441Z,933.5
2019-06-10T10:50:02.889Z,933.4
2019-06-10T10:51:03.352Z,933.5
2019-06-10T10:51:56.745Z,933.6
2019-06-10T10:52:57.878Z,933.7
2019-06-10T10:54:25.389Z,933.7
2019-06-10T10:55:05.990Z,933.5
2019-06-10T10:56:02.187Z,933.7
2019-06-10T10:57:04.640Z,933.6
2019-06-10T10:58:03.303Z,933.5
2019-06-10T10:59:04.136Z,933.5
2019-06-10T11:00:04.527Z,933.4
2019-06-10T11:01:05.106Z,933.3
2019-06-10T11:02:05.324Z,933.3
2019-06-10T11:03:06.450Z,933.4
2019-06-10T11:04:07.579Z,933.3
2019-06-10T11:05:08.711Z,933.2
2019-06-10T11:06:12.621Z,933.1
2019-06-10T11:07:12.939Z,933.1
2019-06-10T11:08:13.500Z,933.1
2019-06-10T11:09:14.264Z,933
2019-06-10T11:10:14.388Z,933.1
2019-06-10T11:11:19.206Z,932.9
2019-06-10T11:12:16.565Z,933
2019-06-10T11:13:17.969Z,933
2019-06-10T11:14:22.998Z,933
2019-06-10T11:15:20.403Z,933
2019-06-10T11:16:22.474Z,932.9
2019-06-10T11:17:22.950Z,933
2019-06-10T11:18:24.076Z,933
2019-06-10T11:19:25.206Z,932.8
2019-06-10T11:20:26.336Z,932.9
2019-06-10T11:21:28.236Z,932.8
2019-06-10T11:22:28.625Z,932.8
2019-06-10T11:23:29.024Z,933
2019-06-10T11:24:37.439Z,933
2019-06-10T11:25:33.179Z,933
2019-06-10T11:26:32.975Z,933
2019-06-10T11:27:33.396Z,933.1
2019-06-10T11:28:37.576Z,932.9
2019-06-10T11:29:38.276Z,933.1
2019-06-10T11:30:38.404Z,932.9
2019-06-10T11:31:38.241Z,933
2019-06-10T11:32:38.690Z,932.9
2019-06-10T11:33:40.088Z,932.9
2019-06-10T11:34:42.860Z,932.9
2019-06-10T11:35:42.770Z,933
2019-06-10T11:36:43.374Z,932.9
2019-06-10T11:37:44.510Z,933
2019-06-10T11:38:46.247Z,933
2019-06-10T11:39:46.682Z,932.9
2019-06-10T11:40:49.336Z,932.8
2019-06-10T11:41:50.803Z,932.9
2019-06-10T11:42:50.486Z,932.8
2019-06-10T11:43:55.006Z,932.8
2019-06-10T11:44:55.319Z,932.7
2019-06-10T11:46:07.598Z,932.7
2019-06-10T11:46:57.504Z,932.6
2019-06-10T11:47:56.609Z,932.4
2019-06-10T11:49:04.111Z,932.5
2019-06-10T11:49:58.052Z,932.5
2019-06-10T11:51:06.122Z,932.5
2019-06-10T11:52:04.735Z,932.5
2019-06-10T11:53:09.186Z,932.4
2019-06-10T11:54:04.200Z,932.5
2019-06-10T11:55:11.494Z,932.5
2019-06-10T11:56:03.528Z,932.3
2019-06-10T11:57:05.764Z,932.4
2019-06-10T11:58:04.882Z,932.4
2019-06-10T11:59:15.372Z,932.2
2019-06-10T12:00:23.157Z,932.4
2019-06-10T12:01:12.164Z,932.2
2019-06-10T12:02:08.707Z,932.3
2019-06-10T12:03:10.097Z,932.3
2019-06-10T12:04:12.826Z,932.2
2019-06-10T12:05:12.978Z,932.2
2019-06-10T12:06:13.950Z,932.2
2019-06-10T12:07:15.099Z,932
2019-06-10T12:08:18.614Z,932.1
2019-06-10T12:09:20.660Z,931.8
2019-06-10T12:10:18.915Z,931
2019-06-10T12:11:22.821Z,931.9
2019-06-10T12:12:22.016Z,931.8
2019-06-10T12:13:22.580Z,931.8
2019-06-10T12:14:26.348Z,931.8
2019-06-10T12:15:23.260Z,931.7
2019-06-10T12:17:50.770Z,931.9
2019-06-10T12:19:23.457Z,931.8
2019-06-10T12:20:22.804Z,931.8
2019-06-10T12:21:23.672Z,931.8
2019-06-10T12:22:24.110Z,931.7
2019-06-10T12:23:32.786Z,931.7
2019-06-10T12:24:28.523Z,931.7
2019-06-10T12:25:47.712Z,931.7
2019-06-10T12:26:33.359Z,931.6
2019-06-10T12:27:32.406Z,931.7
2019-06-10T12:28:32.610Z,931.5
2019-06-10T12:29:32.118Z,931.5
2019-06-10T12:30:34.372Z,931.5
2019-06-10T12:31:34.663Z,931.4
2019-06-10T12:32:35.128Z,931.4
2019-06-10T12:33:39.095Z,931.4
2019-06-10T12:34:38.778Z,931.4
2019-06-10T12:35:38.721Z,931.3
2019-06-10T12:36:38.850Z,931.3
2019-06-10T12:37:42.487Z,931.4
2019-06-10T12:38:43.272Z,931.3
2019-06-10T12:39:44.426Z,931.3
2019-06-10T12:40:43.131Z,931.3
2019-06-10T12:41:44.774Z,931.2
2019-06-10T12:42:44.908Z,931.2
2019-06-10T12:43:48.867Z,931.1
2019-06-10T12:44:46.961Z,931.2
2019-06-10T12:45:48.097Z,931.1
2019-06-10T12:46:49.223Z,931.2
2019-06-10T12:47:50.375Z,931.2
2019-06-10T12:48:53.894Z,931.1
2019-06-10T12:50:05.487Z,931.1
2019-06-10T12:50:55.598Z,931.1
2019-06-10T12:51:55.839Z,931.1
2019-06-10T12:53:04.969Z,931
2019-06-10T12:53:57.370Z,931.1
2019-06-10T12:54:57.528Z,931
2019-06-10T12:55:59.185Z,931.1
2019-06-10T12:57:04.689Z,931
2019-06-10T12:58:04.036Z,931
2019-06-10T12:59:02.762Z,931
2019-06-10T13:00:09.639Z,931
2019-06-10T13:01:06.256Z,930.9
2019-06-10T13:02:15.032Z,930.9
2019-06-10T13:03:05.612Z,930.9
2019-06-10T13:04:07.904Z,930.9
2019-06-10T13:05:12.371Z,930.8
2019-06-10T13:06:14.867Z,930.8
2019-06-10T13:07:08.891Z,930.9
2019-06-10T13:08:09.069Z,930.8
2019-06-10T13:09:13.261Z,930.8
2019-06-10T13:10:12.104Z,930.8
2019-06-10T13:11:14.772Z,930.8
2019-06-10T13:12:13.587Z,930.8
2019-06-10T13:13:14.681Z,930.8
2019-06-10T13:14:18.559Z,930.7
2019-06-10T13:15:15.651Z,930.8
2019-06-10T13:16:16.782Z,930.7
2019-06-10T13:17:18.427Z,930.8
2019-06-10T13:18:19.623Z,930.7
2019-06-10T13:19:20.083Z,930.7
2019-06-10T13:20:22.891Z,930.7
2019-06-10T13:21:23.266Z,930.6
2019-06-10T13:22:23.059Z,930.7
2019-06-10T13:23:37.808Z,930.7
2019-06-10T13:24:23.805Z,930.6
2019-06-10T13:25:27.467Z,930.5
2019-06-10T13:26:25.557Z,930.6
2019-06-10T13:27:28.156Z,930.6
2019-06-10T13:28:27.801Z,930.6
2019-06-10T13:29:30.427Z,930.6
2019-06-10T13:30:28.801Z,930.5
2019-06-10T13:31:29.584Z,930.5
2019-06-10T13:32:32.445Z,930.6